createdAt,value
2023-03-08T00:01:59.479Z,1.32
2023-03-08T00:04:28.246Z,1.30
2023-03-08T00:06:57.056Z,1.30
2023-03-08T00:09:25.648Z,1.31
2023-03-08T00:11:53.958Z,1.29
2023-03-08T00:14:22.689Z,1.27
2023-03-08T00:16:50.889Z,1.29
2023-03-08T00:19:19.372Z,1.31
2023-03-08T00:21:47.853Z,1.34
2023-03-08T00:24:18.182Z,1.38
2023-03-08T00:26:47.691Z,1.38
2023-03-08T00:29:16.105Z,1.36
2023-03-08T00:31:44.519Z,1.37
2023-03-08T00:34:13.671Z,1.43
2023-03-08T00:36:45.419Z,1.51
2023-03-08T00:39:16.604Z,1.61
2023-03-08T00:41:44.948Z,1.72
2023-03-08T00:44:13.530Z,1.82
2023-03-08T00:46:41.927Z,1.92
2023-03-08T00:49:11.310Z,2.03
2023-03-08T00:51:39.968Z,2.11
2023-03-08T00:54:09.212Z,2.21
2023-03-08T00:56:37.691Z,2.29
2023-03-08T00:59:06.105Z,2.32
2023-03-08T01:01:34.767Z,2.32
2023-03-08T01:04:04.527Z,2.29
2023-03-08T01:06:33.679Z,2.30
2023-03-08T01:09:02.568Z,2.37
2023-03-08T01:11:33.433Z,2.44
2023-03-08T01:14:02.195Z,2.50
2023-03-08T01:16:32.729Z,2.54
2023-03-08T01:19:01.532Z,2.61
2023-03-08T01:21:30.497Z,2.69
2023-03-08T01:23:58.918Z,2.75
2023-03-08T01:26:31.897Z,2.77
2023-03-08T01:29:00.568Z,2.78
2023-03-08T01:31:32.335Z,2.81
2023-03-08T01:34:03.164Z,2.82
2023-03-08T01:36:31.677Z,2.82
2023-03-08T01:39:01.476Z,2.84
2023-03-08T01:41:31.012Z,2.89
2023-03-08T01:44:03.959Z,2.96
2023-03-08T01:46:36.337Z,3.03
2023-03-08T01:49:12.086Z,3.10
2023-03-08T01:51:52.347Z,3.17
2023-03-08T01:54:25.336Z,3.26
2023-03-08T01:56:55.256Z,3.34
2023-03-08T01:59:23.639Z,3.42
2023-03-08T02:01:52.196Z,3.50
2023-03-08T02:04:20.827Z,3.58
2023-03-08T02:06:52.890Z,3.65
2023-03-08T02:09:24.240Z,3.70
2023-03-08T02:11:55.481Z,3.74
2023-03-08T02:14:29.509Z,3.77
2023-03-08T02:16:58.074Z,3.78
2023-03-08T02:19:41.712Z,3.79
2023-03-08T02:22:12.720Z,3.79
2023-03-08T02:24:41.037Z,3.84
2023-03-08T02:27:14.130Z,3.92
2023-03-08T02:29:42.723Z,3.98
2023-03-08T02:32:12.181Z,4.03
2023-03-08T02:34:40.926Z,4.07
2023-03-08T02:37:09.849Z,4.10
2023-03-08T02:39:38.212Z,4.13
2023-03-08T02:42:06.986Z,4.14
2023-03-08T02:44:36.723Z,4.13
2023-03-08T02:47:05.509Z,4.13
2023-03-08T02:49:34.098Z,4.12
2023-03-08T02:52:04.852Z,4.12
2023-03-08T02:54:34.412Z,4.16
2023-03-08T02:57:02.687Z,4.20
2023-03-08T02:59:31.591Z,4.24
2023-03-08T03:02:00.993Z,4.29
2023-03-08T03:04:33.400Z,4.33
2023-03-08T03:07:01.849Z,4.37
2023-03-08T03:09:34.559Z,4.42
2023-03-08T03:12:04.166Z,4.48
2023-03-08T03:14:37.638Z,4.53
2023-03-08T03:17:06.051Z,4.57
2023-03-08T03:19:34.910Z,4.60
2023-03-08T03:22:07.833Z,4.62
2023-03-08T03:24:37.732Z,4.65
2023-03-08T03:27:07.424Z,4.67
2023-03-08T03:29:38.706Z,4.70
2023-03-08T03:32:12.340Z,4.73
2023-03-08T03:34:44.779Z,4.74
2023-03-08T03:37:13.642Z,4.75
2023-03-08T03:39:42.739Z,4.75
2023-03-08T03:42:12.875Z,4.75
2023-03-08T03:44:46.359Z,4.73
2023-03-08T03:47:18.334Z,4.72
2023-03-08T03:49:47.530Z,4.71
2023-03-08T03:52:17.562Z,4.69
2023-03-08T03:54:53.140Z,4.69
2023-03-08T03:57:21.916Z,4.69
2023-03-08T03:59:50.481Z,4.67
2023-03-08T04:02:19.171Z,4.66
2023-03-08T04:04:55.239Z,4.65
2023-03-08T04:07:26.078Z,4.62
2023-03-08T04:10:00.120Z,4.62
2023-03-08T04:12:29.287Z,4.64
2023-03-08T04:14:57.881Z,4.64
2023-03-08T04:17:29.945Z,4.65
2023-03-08T04:19:59.860Z,4.65
2023-03-08T04:22:34.993Z,4.64
2023-03-08T04:25:09.478Z,4.62
2023-03-08T04:27:44.659Z,4.61
2023-03-08T04:30:15.003Z,4.61
2023-03-08T04:32:44.236Z,4.62
2023-03-08T04:35:13.282Z,4.61
2023-03-08T04:37:44.227Z,4.62
2023-03-08T04:40:13.535Z,4.62
2023-03-08T04:43:02.798Z,4.61
2023-03-08T04:45:35.789Z,4.60
2023-03-08T04:48:07.237Z,4.59
2023-03-08T04:50:39.729Z,4.54
2023-03-08T04:53:13.658Z,4.47
2023-03-08T04:55:43.067Z,4.41
2023-03-08T04:58:11.720Z,4.40
2023-03-08T05:00:40.350Z,4.40
2023-03-08T05:03:10.531Z,4.42
2023-03-08T05:05:39.426Z,4.41
2023-03-08T05:08:08.417Z,4.42
2023-03-08T05:10:38.781Z,4.43
2023-03-08T05:13:09.818Z,4.48
2023-03-08T05:15:42.095Z,4.54
2023-03-08T05:19:08.097Z,4.59
2023-03-08T05:22:58.691Z,4.70
2023-03-08T05:26:43.068Z,4.80
2023-03-08T05:30:27.449Z,4.87
2023-03-08T05:34:14.154Z,4.94
2023-03-08T05:37:58.108Z,5.03
2023-03-08T05:41:43.391Z,5.11
2023-03-08T05:45:28.372Z,5.17
2023-03-08T05:49:12.733Z,5.23
2023-03-08T05:52:56.305Z,5.30
2023-03-08T05:56:43.820Z,5.40
2023-03-08T06:00:27.459Z,5.47
2023-03-08T06:04:12.331Z,5.55
2023-03-08T06:07:58.143Z,5.62
2023-03-08T06:11:43.617Z,5.66
2023-03-08T06:15:28.001Z,5.74
2023-03-08T06:18:18.281Z,5.87
2023-03-08T06:21:23.235Z,5.97
2023-03-08T06:24:04.672Z,6.10
2023-03-08T06:26:40.885Z,6.17
2023-03-08T06:29:15.228Z,6.25
2023-03-08T06:32:10.663Z,6.37
2023-03-08T06:34:48.108Z,6.49
2023-03-08T06:37:41.026Z,6.60
2023-03-08T06:40:21.016Z,6.72
2023-03-08T06:43:12.331Z,6.83
2023-03-08T06:45:56.584Z,6.95
2023-03-08T06:48:53.126Z,7.05
2023-03-08T06:51:51.881Z,7.16
2023-03-08T06:54:39.779Z,7.25
2023-03-08T06:57:11.451Z,7.32
2023-03-08T07:00:00.509Z,7.39
2023-03-08T07:02:44.139Z,7.49
2023-03-08T07:05:31.244Z,7.60
2023-03-08T07:08:29.314Z,7.72
2023-03-08T07:11:31.393Z,7.84
2023-03-08T07:14:08.372Z,7.94
2023-03-08T07:16:51.230Z,8.02
2023-03-08T07:19:37.242Z,8.08
2023-03-08T07:22:29.426Z,8.12
2023-03-08T07:25:24.685Z,8.15
2023-03-08T07:28:24.656Z,8.22
2023-03-08T07:31:19.359Z,8.35
2023-03-08T07:34:11.813Z,8.48
2023-03-08T07:36:56.162Z,8.59
2023-03-08T07:39:52.502Z,8.66
2023-03-08T07:42:44.431Z,8.77
2023-03-08T08:02:29.564Z,9.33
2023-03-08T08:05:33.533Z,9.32
2023-03-08T08:08:19.301Z,9.28
2023-03-08T08:26:36.105Z,9.75
2023-03-08T08:29:22.496Z,9.85
2023-03-08T08:32:17.494Z,9.99
2023-03-08T08:35:09.190Z,10.11
2023-03-08T08:37:57.484Z,10.16
2023-03-08T08:40:47.870Z,10.28
2023-03-08T08:43:37.034Z,10.41
2023-03-08T08:46:38.583Z,10.52
2023-03-08T08:49:31.446Z,10.64
2023-03-08T08:52:19.294Z,10.75
2023-03-08T08:55:13.973Z,10.77
2023-03-08T08:58:02.339Z,10.85
2023-03-08T09:00:54.272Z,10.95
2023-03-08T09:04:13.641Z,11.02
2023-03-08T09:07:10.163Z,11.00
2023-03-08T09:10:12.590Z,11.01
2023-03-08T09:13:03.814Z,11.06
2023-03-08T09:15:51.659Z,11.19
2023-03-08T09:18:36.170Z,11.25
2023-03-08T09:21:08.708Z,11.24
2023-03-08T09:23:59.453Z,11.21
2023-03-08T09:27:02.046Z,11.22
2023-03-08T09:33:33.319Z,11.40
2023-03-08T09:36:26.588Z,11.37
2023-03-08T09:39:15.430Z,11.23
2023-03-08T09:42:09.019Z,11.08
2023-03-08T09:45:08.621Z,10.91
2023-03-08T09:48:26.774Z,10.82
2023-03-08T09:51:16.889Z,10.82
2023-03-08T09:57:28.938Z,10.86
2023-03-08T10:00:32.802Z,10.80
2023-03-08T10:03:44.626Z,10.80
2023-03-08T10:07:22.240Z,10.78
2023-03-08T10:10:08.881Z,10.75
2023-03-08T10:13:20.999Z,10.74
2023-03-08T10:16:34.514Z,10.67
2023-03-08T10:19:29.638Z,10.55
2023-03-08T10:22:35.041Z,10.38
2023-03-08T10:25:37.098Z,10.19
2023-03-08T10:28:36.636Z,9.99
2023-03-08T10:31:35.431Z,9.91
2023-03-08T10:34:33.892Z,9.87
2023-03-08T10:37:21.429Z,9.85
2023-03-08T10:40:09.882Z,9.86
2023-03-08T10:43:08.476Z,9.90
2023-03-08T10:46:14.732Z,9.93
2023-03-08T10:49:33.092Z,9.92
2023-03-08T10:52:02.708Z,9.86
2023-03-08T10:54:31.289Z,9.82
2023-03-08T10:57:02.022Z,9.78
2023-03-08T10:59:33.576Z,9.78
2023-03-08T11:02:23.170Z,9.84
2023-03-08T11:04:56.080Z,9.88
2023-03-08T11:07:27.396Z,9.89
2023-03-08T11:10:26.456Z,9.92
2023-03-08T11:13:06.144Z,10.00
2023-03-08T11:15:39.033Z,10.10
2023-03-08T11:18:32.623Z,10.17
2023-03-08T11:21:06.825Z,10.23
2023-03-08T11:24:10.827Z,10.22
2023-03-08T11:26:51.938Z,10.17
2023-03-08T11:29:39.862Z,10.12
2023-03-08T11:32:17.469Z,10.08
2023-03-08T11:34:57.813Z,10.10
2023-03-08T11:38:16.884Z,10.11
2023-03-08T11:41:33.518Z,10.15
2023-03-08T11:44:44.803Z,10.20
2023-03-08T11:47:53.617Z,10.28
2023-03-08T11:50:36.341Z,10.34
2023-03-08T11:53:09.941Z,10.42
2023-03-08T11:55:40.689Z,10.48
2023-03-08T11:58:27.379Z,10.54
2023-03-08T12:01:00.894Z,10.62
2023-03-08T12:03:41.617Z,10.70
2023-03-08T12:06:28.010Z,10.79
2023-03-08T12:09:05.846Z,10.89
2023-03-08T12:11:47.682Z,10.99
2023-03-08T12:14:23.442Z,11.05
2023-03-08T12:17:01.944Z,11.10
2023-03-08T12:19:43.974Z,11.23
2023-03-08T12:22:23.597Z,11.35
2023-03-08T12:25:25.546Z,11.45
2023-03-08T12:27:57.060Z,11.52
2023-03-08T12:30:37.563Z,11.59
2023-03-08T12:33:06.837Z,11.70
2023-03-08T12:35:36.420Z,11.75
2023-03-08T12:38:10.301Z,11.78
2023-03-08T12:40:44.560Z,11.81
2023-03-08T12:43:20.572Z,11.80
2023-03-08T12:46:05.842Z,11.81
2023-03-08T12:48:44.717Z,11.82
2023-03-08T12:51:13.064Z,11.87
2023-03-08T12:53:51.774Z,11.85
2023-03-08T12:56:27.982Z,11.78
2023-03-08T12:58:59.495Z,11.73
2023-03-08T13:01:30.964Z,11.76
2023-03-08T13:04:00.528Z,11.83
2023-03-08T13:06:37.404Z,11.93
2023-03-08T13:09:13.711Z,12.07
2023-03-08T13:11:46.198Z,12.10
2023-03-08T13:14:28.915Z,12.07
2023-03-08T13:16:57.594Z,11.99
2023-03-08T13:19:27.802Z,11.93
2023-03-08T13:22:03.159Z,11.95
2023-03-08T13:25:01.660Z,11.98
2023-03-08T13:27:49.820Z,12.00
2023-03-08T13:30:24.349Z,11.99
2023-03-08T13:32:54.132Z,12.02
2023-03-08T13:35:22.953Z,12.03
2023-03-08T13:37:57.159Z,12.01
2023-03-08T13:40:26.286Z,11.93
2023-03-08T13:43:04.044Z,11.86
2023-03-08T13:45:33.445Z,11.84
2023-03-08T13:48:04.212Z,11.79
2023-03-08T13:50:38.703Z,11.77
2023-03-08T13:53:36.939Z,11.78
2023-03-08T13:56:06.888Z,11.83
2023-03-08T13:58:39.832Z,11.87
2023-03-08T14:01:17.626Z,11.88
2023-03-08T14:03:46.868Z,11.89
2023-03-08T14:06:30.090Z,11.92
2023-03-08T14:09:01.688Z,11.99
2023-03-08T14:11:32.426Z,12.03
2023-03-08T14:14:07.649Z,12.10
2023-03-08T14:16:37.999Z,12.18
2023-03-08T14:19:19.833Z,12.22
2023-03-08T14:21:59.986Z,12.30
2023-03-08T14:24:30.367Z,12.34
2023-03-08T14:27:06.917Z,12.31
2023-03-08T14:29:36.513Z,12.22
2023-03-08T14:32:24.102Z,12.15
2023-03-08T14:34:52.876Z,12.11
2023-03-08T14:37:27.415Z,12.00
2023-03-08T14:40:11.798Z,11.92
2023-03-08T14:42:45.606Z,11.89
2023-03-08T14:45:37.611Z,11.85
2023-03-08T14:48:25.336Z,11.83
2023-03-08T14:51:06.198Z,11.77
2023-03-08T14:53:40.954Z,11.68
2023-03-08T14:56:15.950Z,11.59
2023-03-08T14:58:49.496Z,11.46
2023-03-08T15:01:25.978Z,11.36
2023-03-08T15:03:54.470Z,11.27
2023-03-08T15:06:27.924Z,11.21
2023-03-08T15:08:56.815Z,11.14
2023-03-08T15:11:25.298Z,11.09
2023-03-08T15:13:54.009Z,11.08
2023-03-08T15:16:22.640Z,11.09
2023-03-08T15:18:51.386Z,11.12
2023-03-08T15:21:25.205Z,11.15
2023-03-08T15:23:59.588Z,11.08
2023-03-08T15:26:31.863Z,11.01
2023-03-08T15:29:10.557Z,10.98
2023-03-08T15:31:52.021Z,10.90
2023-03-08T15:34:30.331Z,10.82
2023-03-08T15:37:01.543Z,10.74
2023-03-08T15:39:50.065Z,10.65
2023-03-08T15:43:05.883Z,10.55
2023-03-08T15:45:34.270Z,10.46
2023-03-08T15:48:07.420Z,10.37
2023-03-08T15:50:36.797Z,10.32
2023-03-08T15:53:05.450Z,10.28
2023-03-08T15:55:34.237Z,10.22
2023-03-08T15:58:07.842Z,10.19
2023-03-08T16:00:37.045Z,10.14
2023-03-08T16:03:05.524Z,10.10
2023-03-08T16:05:34.622Z,10.06
2023-03-08T16:08:03.420Z,10.04
2023-03-08T16:10:40.745Z,9.99
2023-03-08T16:13:12.161Z,9.94
2023-03-08T16:15:44.025Z,9.88
2023-03-08T16:18:14.563Z,9.82
2023-03-08T16:20:46.440Z,9.75
2023-03-08T16:23:15.519Z,9.68
2023-03-08T16:25:46.574Z,9.61
2023-03-08T16:28:16.797Z,9.54
2023-03-08T16:30:56.159Z,9.46
2023-03-08T16:33:28.363Z,9.42
2023-03-08T16:35:57.833Z,9.40
2023-03-08T16:38:26.390Z,9.40
2023-03-08T16:41:06.189Z,9.41
2023-03-08T16:43:49.787Z,9.42
2023-03-08T16:46:22.706Z,9.41
2023-03-08T16:48:54.629Z,9.40
2023-03-08T16:51:25.570Z,9.37
2023-03-08T16:53:54.629Z,9.33
2023-03-08T16:56:25.227Z,9.31
2023-03-08T16:58:55.169Z,9.29
2023-03-08T17:01:24.545Z,9.28
2023-03-08T17:03:53.338Z,9.25
2023-03-08T17:06:22.769Z,9.21
2023-03-08T17:08:52.258Z,9.17
2023-03-08T17:11:28.356Z,9.12
2023-03-08T17:14:09.050Z,9.04
2023-03-08T17:16:43.753Z,8.95
2023-03-08T17:19:13.594Z,8.88
2023-03-08T17:21:42.079Z,8.79
2023-03-08T17:24:12.954Z,8.70
2023-03-08T17:26:43.653Z,8.62
2023-03-08T17:29:12.036Z,8.53
2023-03-08T17:31:41.156Z,8.46
2023-03-08T17:34:10.028Z,8.36
2023-03-08T17:36:39.223Z,8.28
2023-03-08T17:39:07.510Z,8.20
2023-03-08T17:41:38.822Z,8.12
2023-03-08T17:44:07.309Z,8.05
2023-03-08T17:46:36.093Z,7.96
2023-03-08T17:49:04.718Z,7.92
2023-03-08T17:51:33.404Z,7.84
2023-03-08T17:54:03.439Z,7.75
2023-03-08T17:56:35.799Z,7.67
2023-03-08T17:59:04.598Z,7.61
2023-03-08T18:01:34.202Z,7.55
2023-03-08T18:04:02.814Z,7.49
2023-03-08T18:06:36.813Z,7.41
2023-03-08T18:09:10.409Z,7.33
2023-03-08T18:11:38.689Z,7.26
2023-03-08T18:14:13.693Z,7.22
2023-03-08T18:16:42.831Z,7.17
2023-03-08T18:19:15.911Z,7.12
2023-03-08T18:21:45.601Z,7.06
2023-03-08T18:24:14.264Z,7.01
2023-03-08T18:26:43.206Z,6.94
2023-03-08T18:29:12.817Z,6.87
2023-03-08T18:31:41.605Z,6.79
2023-03-08T18:34:10.183Z,6.73
2023-03-08T18:36:38.569Z,6.68
2023-03-08T18:39:08.244Z,6.64
2023-03-08T18:41:36.868Z,6.60
2023-03-08T18:44:11.819Z,6.55
2023-03-08T18:46:40.642Z,6.52
2023-03-08T18:49:12.041Z,6.47
2023-03-08T18:51:41.814Z,6.43
2023-03-08T18:54:20.941Z,6.38
2023-03-08T18:56:50.288Z,6.34
2023-03-08T18:59:18.666Z,6.30
2023-03-08T19:01:47.093Z,6.27
2023-03-08T19:04:16.048Z,6.26
2023-03-08T19:06:44.647Z,6.25
2023-03-08T19:09:14.760Z,6.21
2023-03-08T19:11:43.790Z,6.18
2023-03-08T19:14:12.453Z,6.17
2023-03-08T19:16:42.244Z,6.14
2023-03-08T19:19:13.304Z,6.12
2023-03-08T19:21:43.851Z,6.10
2023-03-08T19:24:13.810Z,6.08
2023-03-08T19:26:43.462Z,6.06
2023-03-08T19:29:17.577Z,6.04
2023-03-08T19:31:53.218Z,6.01
2023-03-08T19:34:44.956Z,5.98
2023-03-08T19:37:13.980Z,5.92
2023-03-08T19:39:44.590Z,5.85
2023-03-08T19:42:16.023Z,5.77
2023-03-08T19:44:48.635Z,5.70
2023-03-08T19:47:17.878Z,5.61
2023-03-08T19:49:47.029Z,5.53
2023-03-08T19:52:15.814Z,5.47
2023-03-08T19:54:47.198Z,5.38
2023-03-08T19:57:15.783Z,5.30
2023-03-08T19:59:45.464Z,5.23
2023-03-08T20:02:15.102Z,5.11
2023-03-08T20:04:45.709Z,4.99
2023-03-08T20:07:15.931Z,4.87
2023-03-08T20:09:44.615Z,4.76
2023-03-08T20:12:15.618Z,4.67
2023-03-08T20:14:45.679Z,4.59
2023-03-08T20:17:14.474Z,4.52
2023-03-08T20:19:43.575Z,4.43
2023-03-08T20:22:15.317Z,4.36
2023-03-08T20:24:52.748Z,4.30
2023-03-08T20:27:22.848Z,4.21
2023-03-08T20:30:07.033Z,4.12
2023-03-08T20:32:40.044Z,4.02
2023-03-08T20:35:25.632Z,3.94
2023-03-08T20:37:57.248Z,3.86
2023-03-08T20:40:54.660Z,3.76
2023-03-08T20:43:29.927Z,3.69
2023-03-08T20:46:16.088Z,3.62
2023-03-08T20:49:02.883Z,3.54
2023-03-08T20:51:52.947Z,3.47
2023-03-08T20:54:47.025Z,3.38
2023-03-08T20:57:27.635Z,3.32
2023-03-08T21:00:19.956Z,3.26
2023-03-08T21:02:52.091Z,3.23
2023-03-08T21:05:30.926Z,3.19
2023-03-08T21:08:07.473Z,3.14
2023-03-08T21:11:00.878Z,3.07
2023-03-08T21:13:51.371Z,2.98
2023-03-08T21:16:23.523Z,2.93
2023-03-08T21:18:58.773Z,2.86
2023-03-08T21:21:40.865Z,2.80
2023-03-08T21:24:18.600Z,2.75
2023-03-08T21:26:53.912Z,2.70
2023-03-08T21:29:36.940Z,2.66
2023-03-08T21:32:16.396Z,2.56
2023-03-08T21:35:07.101Z,2.47
2023-03-08T21:37:51.649Z,2.46
2023-03-08T21:40:52.900Z,2.45
2023-03-08T21:43:46.695Z,2.45
2023-03-08T21:46:31.631Z,2.44
2023-03-08T21:49:33.917Z,2.44
2023-03-08T21:52:37.433Z,2.46
2023-03-08T21:55:22.401Z,2.47
2023-03-08T21:57:54.751Z,2.47
2023-03-08T22:00:54.805Z,2.47
2023-03-08T22:03:39.701Z,2.46
2023-03-08T22:06:27.087Z,2.44
2023-03-08T22:09:30.080Z,2.41
2023-03-08T22:12:27.850Z,2.40
2023-03-08T22:15:17.441Z,2.40
2023-03-08T22:18:05.480Z,2.42
2023-03-08T22:20:38.272Z,2.44
2023-03-08T22:23:10.899Z,2.47
2023-03-08T22:25:55.246Z,2.52
2023-03-08T22:28:32.891Z,2.56
2023-03-08T22:31:36.845Z,2.60
2023-03-08T22:34:18.089Z,2.64
2023-03-08T22:36:57.802Z,2.67
2023-03-08T22:39:31.632Z,2.66
2023-03-08T22:42:18.768Z,2.69
2023-03-08T22:44:52.647Z,2.76
2023-03-08T22:47:27.252Z,2.83
2023-03-08T22:50:09.443Z,2.86
2023-03-08T22:52:40.150Z,2.89
2023-03-08T22:55:17.241Z,2.92
2023-03-08T22:58:05.987Z,2.96
2023-03-08T23:00:54.225Z,3.02
2023-03-08T23:03:42.288Z,3.03
2023-03-08T23:06:14.970Z,3.06
2023-03-08T23:08:55.470Z,3.08
2023-03-08T23:11:34.001Z,3.12
2023-03-08T23:14:18.084Z,3.13
2023-03-08T23:16:49.219Z,3.15
2023-03-08T23:19:25.195Z,3.23
2023-03-08T23:22:22.361Z,3.34
2023-03-08T23:25:05.391Z,3.44
2023-03-08T23:27:46.376Z,3.55
2023-03-08T23:30:28.148Z,3.65
2023-03-08T23:33:07.350Z,3.74
2023-03-08T23:35:51.169Z,3.81
2023-03-08T23:38:36.129Z,3.90
2023-03-08T23:41:30.192Z,3.96
2023-03-08T23:44:22.466Z,4.03
2023-03-08T23:47:16.305Z,4.08
2023-03-08T23:50:13.143Z,4.13
2023-03-08T23:52:56.210Z,4.14
2023-03-08T23:55:32.553Z,4.15
2023-03-08T23:58:05.412Z,4.13
